Impacts METAR Board
IDs:

KLAX - Los Angeles Intl, CA, US

Updated at: 1100 UTC 23 May 2018
Potential Impact None Slight Moderate High
Time 22/23Z 23/00Z 23/01Z 23/02Z 23/03Z 23/04Z 23/05Z 23/06Z 23/07Z 23/08Z 23/09Z 23/10Z 23/11Z
Temp66 65 64 63 61 60 60 60 60 60 60 60 59
Dewpt54 54 52 51 53 54 54 54 54 54 54 54 54
Altim29.90 29.90 29.90 29.90 29.91 29.92 29.93 29.94 29.94 29.93 29.93 29.93 29.94
VIS10 10 10 10 10 10 10 10 10 10 10 10 10
CIG-- -- -- -- -- -- 40 38 35 35 30 30 30
CoverFEWFEWFEWFEWFEWFEWOVCBKNOVCOVCOVCOVCOVC
FltCatVFRVFRVFRVFRVFRVFRVFRVFRVFRVFRMVFRMVFRMVFR
WX--------------------------
WDir270260270270260260260250230240250260250
WSpd14 13 14 12 11 7 7 6 7 7 7 7 6
WGst-- -- -- -- -- -- -- -- -- -- -- -- --
Raw hourly METARs
KLAX 222253Z 27014KT 10SM FEW042 19/12 A2990 RMK AO2 SLP125 T01890122
KLAX 222353Z 26013KT 10SM FEW040 18/12 A2990 RMK AO2 SLP123 T01830122 10194 20172 58007
KLAX 230053Z 27014KT 10SM FEW040 18/11 A2990 RMK AO2 SLP124 T01780111 $
KLAX 230153Z 27012KT 10SM FEW040 17/11 A2990 RMK AO2 SLP125 T01720106 $
KLAX 230253Z 26011KT 10SM FEW050 16/12 A2991 RMK AO2 SLP127 T01610117 53004 $
KLAX 230353Z 26007KT 10SM FEW050 16/12 A2992 RMK AO2 SLP130 T01560122 $
KLAX 230453Z 26007KT 10SM OVC040 16/12 A2993 RMK AO2 SLP134 T01560122 $
KLAX 230553Z 25006KT 10SM FEW012 BKN038 16/12 A2994 RMK AO2 SLP136 T01560122 10183 20156 51009 $
KLAX 230700Z 23007KT 10SM FEW001 OVC035 16/12 A2994 RMK AO2 T01560122 $
KLAX 230753Z 24007KT 10SM FEW001 OVC035 16/12 A2993 RMK AO2 SLP134 T01560122 401940150 $
KLAX 230853Z 25007KT 10SM FEW008 OVC030 16/12 A2993 RMK AO2 SLP135 T01560122 55002 $
KLAX 230953Z 26007KT 10SM FEW002 FEW009 OVC030 16/12 A2993 RMK AO2 SLP133 T01560122 $
KLAX 231053Z 25006KT 10SM FEW007 FEW012 OVC030 15/12 A2994 RMK AO2 SLP136 T01500122 $



Page loaded:  11:00 UTC  |   04:00 AM Pacific  |   05:00 AM Mountain  |   06:00 AM Central  |   07:00 AM Eastern

 

ADVISORIES

FORECASTS

FORECASTS

OBSERVATIONS

USER TOOLS

ABOUT US